createdAt,value
2022-12-11T00:29:29.574Z,89.34
2022-12-11T00:59:32.555Z,89.44
2022-12-11T01:29:35.483Z,89.04
2022-12-11T01:59:38.809Z,88.15
2022-12-11T02:29:42.102Z,88.29
2022-12-11T02:59:45.242Z,88.43
2022-12-11T03:29:48.540Z,87.54
2022-12-11T03:59:51.315Z,87.28
2022-12-11T04:29:55.503Z,87.21
2022-12-11T04:59:58.629Z,86.83
2022-12-11T05:30:02.115Z,85.34
2022-12-11T06:00:05.051Z,86.00
2022-12-11T06:30:08.177Z,86.33
2022-12-11T07:00:12.068Z,86.02
2022-12-11T07:30:15.711Z,85.65
2022-12-11T08:00:18.577Z,85.43
2022-12-11T08:30:22.795Z,84.65
2022-12-11T09:00:25.656Z,83.53
2022-12-11T09:30:29.525Z,83.70
2022-12-11T10:00:32.307Z,83.93
2022-12-11T10:30:36.408Z,84.24
2022-12-11T11:00:39.273Z,84.12
2022-12-11T11:30:43.478Z,84.31
2022-12-11T12:00:46.322Z,83.75
2022-12-11T12:30:50.424Z,82.93
2022-12-11T13:00:53.416Z,82.39
2022-12-11T13:30:57.365Z,83.30
2022-12-11T14:01:00.482Z,83.12
2022-12-11T14:31:04.189Z,84.03
2022-12-11T15:01:07.219Z,84.42
2022-12-11T15:31:11.540Z,84.66
2022-12-11T16:01:14.527Z,85.03
2022-12-11T16:31:18.250Z,85.53
2022-12-11T17:01:21.849Z,85.92
2022-12-11T17:31:26.086Z,85.86
2022-12-11T18:01:32.786Z,86.26
2022-12-11T18:31:42.180Z,86.98
2022-12-11T19:01:46.193Z,86.91
2022-12-11T19:31:49.502Z,87.07
2022-12-11T20:01:53.124Z,87.56
2022-12-11T20:31:56.544Z,87.39
2022-12-11T21:01:59.457Z,87.49
2022-12-11T21:32:03.174Z,87.77
2022-12-11T22:02:06.084Z,87.97
2022-12-11T22:32:09.895Z,88.51
2022-12-11T23:02:13.435Z,88.44
2022-12-11T23:32:16.964Z,88.73
